Pagrindinis puslapis
METAR-TAF:

METAR-TAF

Oro uostai :

Trumsė, Norvegija

platuma: 69-41N, ilguma: 018-55E, Aukštis: 1 m

Dabartinis oras

Ataskaita buvo paskelbta 4 valandos ir 55 minutes, ne 18:20 UTC
Vėjas 2 kt nuo kintamojo kryptimis
Temperatūra 24°C
Drėgmė 50%
Slėgis 1007 hPa
Matomumas 10 km arba daugiau
nėra debesų žemiau 1500 m ir nėra kamuolinių lietaus debesų

METAR: ENTC 021820Z VRB02KT CAVOK 24/13 Q1007 RMK WIND 2600FT 18009KT

Laikas: 01:15 (23:15 UTC)

Prognozė

Prognozė galioja nuo 02 metu 18 UTC su 03 metu 18 UTC
Vėjas 8 kt iš Šiaurės/Šiaurės Rytų
Matomumas 10 km arba daugiau
nėra debesų žemiau 1500 m ir nėra kamuolinių lietaus debesų
Tikimybė 30% :
Laikinai
nuo 02 metu 18 UTC su 02 metu 22 UTC
Mažai debesys ne aukštis 4000 ft, Liūtiniai kamuoliniai debesys.
Laikinai
nuo 02 metu 24 UTC su 03 metu 07 UTC
Vėjas 10 kt iš Vakarų
Laikinai
nuo 03 metu 07 UTC su 03 metu 13 UTC
Su prošvaistėmis ne aukštis 800 ft
lietus

TAF: ENTC 0218/0318 03008KT CAVOK PROB30 TEMPO 0218/0222 FEW040CB TEMPO 0224/0307 27010KT TEMPO 0307/0313 SHRA BKN008

Orai ataskaitas ir orų prognozės (METAR, TAF).

turimą stotys yra geltonos ir raudonos taškus žemėlapyje.

Perkelti pele per norėdami pamatyti stoties vardą.

Tada spustelėkite, norėdami matyti oro stebėjimo ir prognozės.

Norėdami pakeisti žemėlapį: spustelėkite ant žalios mygtukų su juodo kryžiaus žemyn,; žalią mygtuką su brūkšneliu, jei norite nutolinti; arba žalių rodyklių gretimoms žemėlapius.


METAR-TAF: